createdAt,value
2019-02-26T00:00:04.450Z,20.00
2019-02-26T00:01:04.126Z,16.00
2019-02-26T00:02:04.116Z,16.00
2019-02-26T00:03:04.733Z,16.00
2019-02-26T00:04:04.282Z,16.00
2019-02-26T00:05:05.031Z,16.00
2019-02-26T00:06:04.092Z,16.00
2019-02-26T00:07:04.374Z,16.00
2019-02-26T00:08:04.052Z,16.00
2019-02-26T00:09:04.051Z,16.00
2019-02-26T00:10:07.044Z,16.00
2019-02-26T00:11:06.708Z,16.00
2019-02-26T00:12:05.536Z,16.00
2019-02-26T00:13:04.027Z,16.00
2019-02-26T00:14:04.299Z,16.00
2019-02-26T00:15:04.558Z,16.00
2019-02-26T00:16:07.595Z,16.00
2019-02-26T00:17:08.633Z,16.00
2019-02-26T00:18:07.473Z,16.00
2019-02-26T00:19:05.160Z,16.00
2019-02-26T00:20:05.657Z,16.00
2019-02-26T00:21:05.011Z,16.00
2019-02-26T00:22:04.069Z,16.00
2019-02-26T00:23:04.384Z,16.00
2019-02-26T00:24:05.039Z,16.00
2019-02-26T00:25:06.259Z,16.00
2019-02-26T00:26:03.861Z,16.00
2019-02-26T00:27:05.555Z,16.00
2019-02-26T00:28:04.275Z,16.00
2019-02-26T00:29:04.487Z,16.00
2019-02-26T00:30:03.829Z,16.00
2019-02-26T00:31:05.894Z,16.00
2019-02-26T00:32:03.793Z,16.00
2019-02-26T00:33:05.237Z,16.00
2019-02-26T00:34:05.826Z,16.00
2019-02-26T00:35:04.988Z,16.00
2019-02-26T00:36:04.487Z,16.00
2019-02-26T00:37:04.555Z,16.00
2019-02-26T00:38:03.732Z,16.00
2019-02-26T00:39:05.099Z,16.00
2019-02-26T00:40:04.104Z,16.00
2019-02-26T00:41:04.363Z,16.00
2019-02-26T00:42:05.190Z,16.00
2019-02-26T00:43:04.783Z,16.00
2019-02-26T00:44:04.314Z,16.00
2019-02-26T00:45:05.816Z,16.00
2019-02-26T00:46:05.600Z,16.00
2019-02-26T00:47:04.835Z,16.00
2019-02-26T00:48:03.634Z,16.00
2019-02-26T00:49:05.877Z,16.00
2019-02-26T00:50:05.131Z,16.00
2019-02-26T00:51:03.595Z,16.00
2019-02-26T00:52:04.721Z,16.00
2019-02-26T00:53:04.044Z,16.00
2019-02-26T00:54:04.142Z,16.00
2019-02-26T00:55:05.388Z,16.00
2019-02-26T00:56:05.720Z,16.00
2019-02-26T00:57:05.759Z,16.00
2019-02-26T00:58:05.702Z,16.00
2019-02-26T00:59:03.511Z,16.00
2019-02-26T01:00:05.281Z,16.00
2019-02-26T01:01:08.250Z,16.00
2019-02-26T01:02:04.504Z,16.00
2019-02-26T01:03:05.735Z,16.00
2019-02-26T01:04:03.604Z,16.00
2019-02-26T01:05:04.033Z,16.00
2019-02-26T01:06:04.122Z,16.00
2019-02-26T01:07:05.327Z,16.00
2019-02-26T01:08:03.453Z,16.00
2019-02-26T01:09:05.868Z,16.00
2019-02-26T01:10:04.056Z,16.00
2019-02-26T01:11:03.923Z,16.00
2019-02-26T01:12:03.377Z,16.00
2019-02-26T01:13:05.064Z,16.00
2019-02-26T01:14:03.379Z,16.00
2019-02-26T01:15:04.943Z,16.00
2019-02-26T01:16:03.735Z,16.00
2019-02-26T01:17:03.624Z,16.00
2019-02-26T01:18:05.470Z,16.00
2019-02-26T01:19:03.299Z,16.00
2019-02-26T01:20:04.012Z,16.00
2019-02-26T01:21:04.285Z,16.00
2019-02-26T01:22:03.485Z,16.00
2019-02-26T01:23:03.261Z,16.00
2019-02-26T01:24:04.312Z,16.00
2019-02-26T01:25:03.248Z,16.00
2019-02-26T01:26:03.233Z,16.00
2019-02-26T01:27:03.239Z,16.00
2019-02-26T01:28:03.323Z,16.00
2019-02-26T01:29:03.199Z,16.00
2019-02-26T01:30:03.443Z,16.00
2019-02-26T01:31:05.024Z,16.00
2019-02-26T01:32:03.166Z,16.00
2019-02-26T01:33:05.002Z,16.00
2019-02-26T01:34:03.223Z,16.00
2019-02-26T01:35:04.144Z,16.00
2019-02-26T01:36:03.138Z,16.00
2019-02-26T01:37:05.513Z,16.00
2019-02-26T01:38:03.106Z,16.00
2019-02-26T01:39:03.089Z,16.00
2019-02-26T01:40:03.133Z,16.00
2019-02-26T01:41:03.075Z,16.00
2019-02-26T01:42:03.057Z,16.00
2019-02-26T01:43:05.487Z,16.00
2019-02-26T01:44:03.350Z,16.00
2019-02-26T01:45:04.013Z,16.00
2019-02-26T01:46:03.075Z,16.00
2019-02-26T01:47:04.723Z,16.00
2019-02-26T01:48:04.083Z,16.00
2019-02-26T01:49:04.322Z,16.00
2019-02-26T01:50:04.234Z,16.00
2019-02-26T01:51:03.426Z,16.00
2019-02-26T01:52:03.052Z,16.00
2019-02-26T01:53:02.956Z,16.00
2019-02-26T01:54:02.932Z,16.00
2019-02-26T01:55:02.937Z,16.00
2019-02-26T01:56:05.108Z,16.00
2019-02-26T01:57:02.903Z,16.00
2019-02-26T01:58:03.237Z,16.00
2019-02-26T01:59:02.901Z,16.00
2019-02-26T02:00:06.417Z,16.00
2019-02-26T02:01:02.937Z,16.00
2019-02-26T02:02:02.950Z,16.00
2019-02-26T02:03:02.851Z,16.00
2019-02-26T02:04:02.900Z,16.00
2019-02-26T02:05:04.963Z,16.00
2019-02-26T02:06:02.813Z,16.00
2019-02-26T02:07:04.210Z,16.00
2019-02-26T02:08:02.790Z,16.00
2019-02-26T02:09:02.828Z,16.00
2019-02-26T02:10:03.230Z,16.00
2019-02-26T02:11:04.816Z,16.00
2019-02-26T02:12:04.233Z,16.00
2019-02-26T02:13:04.617Z,16.00
2019-02-26T02:14:05.677Z,16.00
2019-02-26T02:15:02.720Z,16.00
2019-02-26T02:16:04.477Z,16.00
2019-02-26T02:17:03.617Z,16.00
2019-02-26T02:18:04.099Z,16.00
2019-02-26T02:19:02.991Z,16.00
2019-02-26T02:20:05.193Z,16.00
2019-02-26T02:21:03.699Z,16.00
2019-02-26T02:22:02.640Z,16.00
2019-02-26T02:23:04.667Z,16.00
2019-02-26T02:24:02.617Z,16.00
2019-02-26T02:25:02.621Z,16.00
2019-02-26T02:26:04.396Z,16.00
2019-02-26T02:27:02.915Z,16.00
2019-02-26T02:28:04.426Z,16.00
2019-02-26T02:29:02.566Z,16.00
2019-02-26T02:30:02.565Z,16.00
2019-02-26T02:31:02.544Z,16.00
2019-02-26T02:32:04.977Z,16.00
2019-02-26T02:33:02.869Z,16.00
2019-02-26T02:34:02.521Z,16.00
2019-02-26T02:35:05.497Z,16.00
2019-02-26T02:36:02.494Z,16.00
2019-02-26T02:37:02.486Z,16.00
2019-02-26T02:38:04.798Z,16.00
2019-02-26T02:39:02.515Z,16.00
2019-02-26T02:40:02.757Z,16.00
2019-02-26T02:41:02.441Z,16.00
2019-02-26T02:42:02.436Z,16.00
2019-02-26T02:43:04.642Z,16.00
2019-02-26T02:44:03.773Z,16.00
2019-02-26T02:45:05.069Z,16.00
2019-02-26T02:46:02.396Z,16.00
2019-02-26T02:47:04.256Z,16.00
2019-02-26T02:48:03.343Z,16.00
2019-02-26T02:49:04.524Z,16.00
2019-02-26T02:50:03.152Z,16.00
2019-02-26T02:51:05.350Z,16.00
2019-02-26T02:52:04.152Z,16.00
2019-02-26T02:53:04.054Z,16.00
2019-02-26T02:54:02.610Z,16.00
2019-02-26T02:55:04.401Z,16.00
2019-02-26T02:56:03.696Z,16.00
2019-02-26T02:57:03.001Z,16.00
2019-02-26T02:58:02.265Z,16.00
2019-02-26T02:59:03.546Z,16.00
2019-02-26T03:00:02.998Z,16.00
2019-02-26T03:01:21.810Z,16.00
2019-02-26T03:02:02.219Z,16.00
2019-02-26T03:03:02.207Z,16.00
2019-02-26T03:04:02.473Z,16.00
2019-02-26T03:05:02.185Z,16.00
2019-02-26T03:06:06.522Z,16.00
2019-02-26T03:07:03.093Z,16.00
2019-02-26T03:08:02.151Z,16.00
2019-02-26T03:09:02.140Z,16.00
2019-02-26T03:10:04.545Z,16.00
2019-02-26T03:11:02.121Z,16.00
2019-02-26T03:12:02.109Z,16.00
2019-02-26T03:13:02.970Z,16.00
2019-02-26T03:14:02.091Z,16.00
2019-02-26T03:15:02.889Z,16.00
2019-02-26T03:16:02.075Z,16.00
2019-02-26T03:17:02.068Z,16.00
2019-02-26T03:18:04.162Z,16.00
2019-02-26T03:19:04.139Z,16.00
2019-02-26T03:20:04.840Z,16.00
2019-02-26T03:21:04.785Z,16.00
2019-02-26T03:22:02.014Z,16.00
2019-02-26T03:23:04.085Z,16.00
2019-02-26T03:24:03.362Z,16.00
2019-02-26T03:25:02.547Z,16.00
2019-02-26T03:26:01.995Z,16.00
2019-02-26T03:27:02.071Z,16.00
2019-02-26T03:28:01.937Z,16.00
2019-02-26T03:29:01.937Z,16.00
2019-02-26T03:30:02.278Z,16.00
2019-02-26T03:31:01.952Z,16.00
2019-02-26T03:32:01.938Z,16.00
2019-02-26T03:33:04.407Z,16.00
2019-02-26T03:34:08.815Z,16.00
2019-02-26T03:35:07.134Z,16.00
2019-02-26T03:36:05.506Z,16.00
2019-02-26T03:37:03.867Z,16.00
2019-02-26T03:38:03.602Z,16.00
2019-02-26T03:39:02.840Z,16.00
2019-02-26T03:40:03.677Z,16.00
2019-02-26T03:41:03.684Z,16.00
2019-02-26T03:42:01.911Z,16.00
2019-02-26T03:43:04.406Z,16.00
2019-02-26T03:44:03.291Z,16.00
2019-02-26T03:45:02.935Z,16.00
2019-02-26T03:46:01.747Z,16.00
2019-02-26T03:47:01.739Z,16.00
2019-02-26T03:48:01.801Z,16.00
2019-02-26T03:49:02.896Z,16.00
2019-02-26T03:50:01.732Z,16.00
2019-02-26T03:51:01.722Z,16.00
2019-02-26T03:52:01.993Z,16.00
2019-02-26T03:53:01.697Z,16.00
2019-02-26T03:54:01.750Z,16.00
2019-02-26T03:55:03.607Z,16.00
2019-02-26T03:56:04.317Z,16.00
2019-02-26T03:57:01.632Z,16.00
2019-02-26T03:58:02.227Z,16.00
2019-02-26T03:59:05.754Z,16.00
2019-02-26T04:00:05.635Z,16.00
2019-02-26T04:01:04.486Z,20.00
2019-02-26T04:02:02.609Z,20.00
2019-02-26T04:03:03.426Z,20.00
2019-02-26T04:04:02.463Z,20.00
2019-02-26T04:05:02.922Z,20.00
2019-02-26T04:06:03.127Z,20.00
2019-02-26T04:07:04.144Z,20.00
2019-02-26T04:08:04.416Z,20.00
2019-02-26T04:09:01.540Z,20.00
2019-02-26T04:10:01.486Z,20.00
2019-02-26T04:11:02.027Z,20.00
2019-02-26T04:12:01.660Z,20.00
2019-02-26T04:13:01.849Z,20.00
2019-02-26T04:14:01.494Z,20.00
2019-02-26T04:15:01.445Z,20.00
2019-02-26T04:16:03.881Z,20.00
2019-02-26T04:17:03.542Z,20.00
2019-02-26T04:18:01.601Z,20.00
2019-02-26T04:19:01.421Z,20.00
2019-02-26T04:20:02.664Z,20.00
2019-02-26T04:21:05.725Z,20.00
2019-02-26T04:22:02.365Z,20.00
2019-02-26T04:23:01.352Z,20.00
2019-02-26T04:24:03.457Z,20.00
2019-02-26T04:25:05.144Z,20.00
2019-02-26T04:26:02.330Z,20.00
2019-02-26T04:27:01.678Z,20.00
2019-02-26T04:28:02.600Z,20.00
2019-02-26T04:29:01.287Z,20.00
2019-02-26T04:30:01.376Z,20.00
2019-02-26T04:31:03.004Z,20.00
2019-02-26T04:32:01.251Z,20.00
2019-02-26T04:33:02.073Z,20.00
2019-02-26T04:34:04.416Z,20.00
2019-02-26T04:35:02.824Z,20.00
2019-02-26T04:36:01.270Z,20.00
2019-02-26T04:37:02.482Z,20.00
2019-02-26T04:38:03.345Z,20.00
2019-02-26T04:39:01.190Z,20.00
2019-02-26T04:40:04.758Z,20.00
2019-02-26T04:41:03.052Z,20.00
2019-02-26T04:42:03.610Z,20.00
2019-02-26T04:43:01.904Z,20.00
2019-02-26T04:44:03.247Z,20.00
2019-02-26T04:45:04.892Z,20.00
2019-02-26T04:46:02.856Z,20.00
2019-02-26T04:47:05.351Z,20.00
2019-02-26T04:48:01.089Z,20.00
2019-02-26T04:49:01.074Z,20.00
2019-02-26T04:50:03.901Z,20.00
2019-02-26T04:51:02.075Z,24.00
2019-02-26T04:52:02.934Z,20.00
2019-02-26T04:53:02.814Z,20.00
2019-02-26T04:54:02.113Z,20.00
2019-02-26T04:55:01.015Z,20.00
2019-02-26T04:56:02.993Z,20.00
2019-02-26T04:57:01.000Z,20.00
2019-02-26T04:58:00.977Z,20.00
2019-02-26T04:59:03.557Z,20.00
2019-02-26T05:00:02.419Z,20.00
2019-02-26T05:01:01.242Z,20.00
2019-02-26T05:02:01.080Z,20.00
2019-02-26T05:03:00.928Z,20.00
2019-02-26T05:04:00.918Z,20.00
2019-02-26T05:05:00.969Z,20.00
2019-02-26T05:06:03.016Z,20.00
2019-02-26T05:07:04.432Z,20.00
2019-02-26T05:08:00.873Z,20.00
2019-02-26T05:09:02.788Z,20.00
2019-02-26T05:10:02.175Z,20.00
2019-02-26T05:11:00.888Z,20.00
2019-02-26T05:12:00.829Z,20.00
2019-02-26T05:13:03.287Z,20.00
2019-02-26T05:14:02.098Z,20.00
2019-02-26T05:15:00.811Z,20.00
2019-02-26T05:16:00.791Z,20.00
2019-02-26T05:17:00.827Z,20.00
2019-02-26T05:18:00.843Z,20.00
2019-02-26T05:19:00.754Z,20.00
2019-02-26T05:20:00.744Z,20.00
2019-02-26T05:21:04.193Z,20.00
2019-02-26T05:22:01.667Z,20.00
2019-02-26T05:23:02.626Z,20.00
2019-02-26T05:24:02.944Z,20.00
2019-02-26T05:25:00.685Z,20.00
2019-02-26T05:26:05.135Z,20.00
2019-02-26T05:27:01.712Z,20.00
2019-02-26T05:28:00.654Z,20.00
2019-02-26T05:29:00.683Z,20.00
2019-02-26T05:30:00.638Z,20.00
2019-02-26T05:31:00.620Z,20.00
2019-02-26T05:32:01.757Z,20.00
2019-02-26T05:33:02.764Z,16.00
2019-02-26T05:34:00.905Z,20.00
2019-02-26T05:35:00.653Z,20.00
2019-02-26T05:36:00.584Z,20.00
2019-02-26T05:37:02.366Z,20.00
2019-02-26T05:38:03.377Z,20.00
2019-02-26T05:39:02.264Z,20.00
2019-02-26T05:40:00.812Z,20.00
2019-02-26T05:41:00.590Z,20.00
2019-02-26T05:42:01.314Z,20.00
2019-02-26T05:43:01.877Z,20.00
2019-02-26T05:44:01.839Z,20.00
2019-02-26T05:45:02.953Z,20.00
2019-02-26T05:46:03.243Z,20.00
2019-02-26T05:47:01.578Z,20.00
2019-02-26T05:48:00.459Z,20.00
2019-02-26T05:49:00.440Z,20.00
2019-02-26T05:50:02.675Z,20.00
2019-02-26T05:51:03.556Z,20.00
2019-02-26T05:52:01.746Z,20.00
2019-02-26T05:53:01.825Z,24.00
2019-02-26T05:54:02.159Z,20.00
2019-02-26T05:55:01.361Z,24.00
2019-02-26T05:56:00.373Z,24.00
2019-02-26T05:57:01.751Z,24.00
2019-02-26T05:58:00.354Z,28.00
2019-02-26T05:59:04.316Z,28.00
2019-02-26T06:00:01.375Z,28.00
2019-02-26T06:01:00.387Z,32.00
2019-02-26T06:02:00.294Z,32.00
2019-02-26T06:03:00.339Z,32.00
2019-02-26T06:04:00.267Z,40.00
2019-02-26T06:05:00.594Z,40.00
2019-02-26T06:06:00.596Z,44.00
2019-02-26T06:07:02.166Z,48.00
2019-02-26T06:08:00.303Z,56.00
2019-02-26T06:09:02.285Z,60.00
2019-02-26T06:10:00.206Z,68.00
2019-02-26T06:11:00.248Z,72.00
2019-02-26T06:12:00.517Z,84.00
2019-02-26T06:13:02.195Z,92.00
2019-02-26T06:14:05.409Z,100.00
2019-02-26T06:15:05.145Z,108.00
2019-02-26T06:16:01.963Z,120.00
2019-02-26T06:17:00.165Z,132.00
2019-02-26T06:18:01.045Z,132.00
2019-02-26T06:19:00.130Z,152.00
2019-02-26T06:20:02.089Z,168.00
2019-02-26T06:21:01.195Z,196.00
2019-02-26T06:22:00.127Z,212.00
2019-02-26T06:23:00.098Z,236.00
2019-02-26T06:24:01.010Z,268.00
2019-02-26T06:25:04.054Z,296.00
2019-02-26T06:26:02.529Z,324.00
2019-02-26T06:27:00.113Z,352.00
2019-02-26T06:28:02.277Z,376.00
2019-02-26T06:29:00.007Z,404.00
2019-02-26T06:30:03.217Z,424.00
2019-02-26T06:31:01.070Z,456.00
2019-02-26T06:32:00.890Z,484.00
2019-02-26T06:33:04.103Z,504.00
2019-02-26T06:34:03.530Z,532.00
2019-02-26T06:35:01.045Z,556.00
2019-02-26T06:36:01.665Z,580.00
2019-02-26T06:37:00.066Z,600.00
2019-02-26T06:38:02.084Z,624.00
2019-02-26T06:39:01.551Z,652.00
2019-02-26T06:40:02.490Z,680.00
2019-02-26T06:41:00.065Z,704.00
2019-02-26T06:41:59.875Z,728.00
2019-02-26T06:42:59.882Z,760.00
2019-02-26T06:43:59.899Z,788.00
2019-02-26T06:44:59.854Z,820.00
2019-02-26T06:46:00.813Z,856.00
2019-02-26T06:47:00.403Z,880.00
2019-02-26T06:47:59.824Z,900.00
2019-02-26T06:48:59.819Z,920.00
2019-02-26T06:50:00.239Z,936.00
2019-02-26T06:51:00.463Z,960.00
2019-02-26T06:51:59.909Z,1000.00
2019-02-26T06:52:59.815Z,1040.00
2019-02-26T06:54:01.064Z,1044.00
2019-02-26T06:55:00.947Z,1024.00
2019-02-26T06:56:00.743Z,1064.00
2019-02-26T06:56:59.705Z,1140.00
2019-02-26T06:57:59.750Z,1176.00
2019-02-26T06:59:00.723Z,1204.00
2019-02-26T07:00:01.349Z,1220.00
2019-02-26T07:00:59.682Z,1204.00
2019-02-26T07:01:59.652Z,1252.00
2019-02-26T07:03:00.136Z,1292.00
2019-02-26T07:03:59.710Z,1316.00
2019-02-26T07:04:59.632Z,1340.00
2019-02-26T07:06:03.174Z,1356.00
2019-02-26T07:07:01.931Z,1384.00
2019-02-26T07:08:02.056Z,1400.00
2019-02-26T07:08:59.586Z,1424.00
2019-02-26T07:09:59.633Z,1448.00
2019-02-26T07:10:59.558Z,1468.00
2019-02-26T07:11:59.547Z,1492.00
2019-02-26T07:12:59.584Z,1520.00
2019-02-26T07:14:01.430Z,1544.00
2019-02-26T07:14:59.512Z,1564.00
2019-02-26T07:15:59.587Z,1588.00
2019-02-26T07:16:59.655Z,1612.00
2019-02-26T07:18:02.232Z,1688.00
2019-02-26T07:19:01.111Z,1660.00
2019-02-26T07:20:00.400Z,1596.00
2019-02-26T07:21:00.297Z,1704.00
2019-02-26T07:21:59.632Z,1740.00
2019-02-26T07:22:59.426Z,1768.00
2019-02-26T07:24:01.182Z,1796.00
2019-02-26T07:24:59.416Z,1812.00
2019-02-26T07:25:59.427Z,1832.00
2019-02-26T07:26:59.385Z,1872.00
2019-02-26T07:28:01.195Z,1904.00
2019-02-26T07:28:59.364Z,1928.00
2019-02-26T07:29:59.357Z,1960.00
2019-02-26T07:31:00.459Z,1988.00
2019-02-26T07:31:59.328Z,2024.00
2019-02-26T07:32:59.341Z,2056.00
2019-02-26T07:34:01.340Z,2092.00
2019-02-26T07:34:59.595Z,2124.00
2019-02-26T07:36:01.648Z,2156.00
2019-02-26T07:36:59.273Z,2188.00
2019-02-26T07:38:01.182Z,2220.00
2019-02-26T07:38:59.256Z,2260.00
2019-02-26T07:39:59.326Z,2288.00
2019-02-26T07:41:01.422Z,2320.00
2019-02-26T07:41:59.755Z,2360.00
2019-02-26T07:42:59.272Z,2384.00
2019-02-26T07:43:59.998Z,2444.00
2019-02-26T07:44:59.193Z,2488.00
2019-02-26T07:45:59.270Z,2532.00
2019-02-26T07:47:00.911Z,2636.00
2019-02-26T07:48:00.837Z,6324.00
2019-02-26T07:49:01.898Z,15232.00
2019-02-26T07:50:01.620Z,17824.00
2019-02-26T07:50:59.176Z,16064.00
2019-02-26T07:52:00.437Z,15904.00
2019-02-26T07:52:59.472Z,15200.00
2019-02-26T07:54:00.746Z,14464.00
2019-02-26T07:55:00.221Z,14048.00
2019-02-26T07:56:01.222Z,13804.00
2019-02-26T07:57:00.579Z,13876.00
2019-02-26T07:57:59.981Z,13804.00
2019-02-26T07:59:01.407Z,13708.00
2019-02-26T07:59:59.052Z,13888.00
2019-02-26T08:00:59.072Z,14592.00
2019-02-26T08:01:59.061Z,14848.00
2019-02-26T08:03:02.123Z,14264.00
2019-02-26T08:03:59.326Z,13656.00
2019-02-26T08:04:58.977Z,13268.00
2019-02-26T08:06:00.196Z,12824.00
2019-02-26T08:07:00.973Z,12196.00
2019-02-26T08:07:58.946Z,11692.00
2019-02-26T08:08:58.981Z,11296.00
2019-02-26T08:10:00.408Z,11232.00
2019-02-26T08:10:59.041Z,10540.00
2019-02-26T08:11:59.481Z,8076.00
2019-02-26T08:13:01.049Z,5260.00
2019-02-26T08:13:59.694Z,3724.00
2019-02-26T08:14:58.896Z,3584.00
2019-02-26T08:16:00.228Z,3444.00
2019-02-26T08:17:01.309Z,3388.00
2019-02-26T08:18:01.267Z,3380.00
2019-02-26T08:18:59.419Z,3376.00
2019-02-26T08:19:58.816Z,3400.00
2019-02-26T08:21:00.784Z,3416.00
2019-02-26T08:21:58.913Z,3424.00
2019-02-26T08:23:01.228Z,3424.00
2019-02-26T08:23:59.152Z,3396.00
2019-02-26T08:24:58.847Z,3364.00
2019-02-26T08:26:00.435Z,3356.00
2019-02-26T08:26:58.758Z,3324.00
2019-02-26T08:28:01.313Z,3300.00
2019-02-26T08:29:00.266Z,3276.00
2019-02-26T08:30:00.867Z,3268.00
2019-02-26T08:30:59.238Z,3264.00
2019-02-26T08:31:59.634Z,3260.00
2019-02-26T08:32:59.753Z,3272.00
2019-02-26T08:33:58.730Z,3308.00
2019-02-26T08:35:00.022Z,3344.00
2019-02-26T08:35:58.653Z,3368.00
2019-02-26T08:36:58.643Z,3408.00
2019-02-26T08:37:59.965Z,3436.00
2019-02-26T08:38:58.622Z,3480.00
2019-02-26T08:39:58.763Z,3532.00
2019-02-26T08:40:58.590Z,3572.00
2019-02-26T08:41:58.581Z,3652.00
2019-02-26T08:42:58.655Z,3716.00
2019-02-26T08:43:59.007Z,3752.00
2019-02-26T08:44:58.562Z,3888.00
2019-02-26T08:45:58.849Z,3880.00
2019-02-26T08:46:58.528Z,3956.00
2019-02-26T08:47:58.844Z,4028.00
2019-02-26T08:49:07.904Z,4112.00
2019-02-26T08:50:01.179Z,4156.00
2019-02-26T08:51:00.811Z,4208.00
2019-02-26T08:51:58.747Z,4264.00
2019-02-26T08:52:59.446Z,4264.00
2019-02-26T08:53:58.476Z,4240.00
2019-02-26T08:54:58.442Z,4252.00
2019-02-26T08:55:59.673Z,4288.00
2019-02-26T08:56:58.420Z,4288.00
2019-02-26T08:57:58.497Z,4276.00
2019-02-26T08:59:00.462Z,4280.00
2019-02-26T08:59:58.400Z,4264.00
2019-02-26T09:00:58.382Z,4256.00
2019-02-26T09:01:58.514Z,4296.00
2019-02-26T09:02:58.469Z,4324.00
2019-02-26T09:04:00.810Z,4324.00
2019-02-26T09:04:59.357Z,4324.00
2019-02-26T09:06:10.094Z,4416.00
2019-02-26T09:07:00.285Z,4472.00
2019-02-26T09:07:58.763Z,4480.00
2019-02-26T09:09:00.157Z,4600.00
2019-02-26T09:09:58.343Z,4648.00
2019-02-26T09:10:58.278Z,4688.00
2019-02-26T09:12:00.650Z,4712.00
2019-02-26T09:12:58.393Z,4764.00
2019-02-26T09:13:59.580Z,4816.00
2019-02-26T09:15:02.832Z,4856.00
2019-02-26T09:16:01.019Z,4924.00
2019-02-26T09:16:59.587Z,4924.00
2019-02-26T09:17:58.345Z,4952.00
2019-02-26T09:18:58.372Z,4960.00
2019-02-26T09:20:08.475Z,5036.00
2019-02-26T09:20:59.507Z,5108.00
2019-02-26T09:21:58.537Z,5204.00
2019-02-26T09:22:59.640Z,5216.00
2019-02-26T09:24:00.048Z,5264.00
2019-02-26T09:25:01.475Z,5284.00
2019-02-26T09:26:00.409Z,5332.00
2019-02-26T09:26:59.935Z,5372.00
2019-02-26T09:27:58.095Z,5396.00
2019-02-26T09:28:58.532Z,5448.00
2019-02-26T09:29:58.076Z,5544.00
2019-02-26T09:31:01.045Z,5544.00
2019-02-26T09:31:58.057Z,5408.00
2019-02-26T09:33:00.899Z,5628.00
2019-02-26T09:33:58.242Z,5664.00
2019-02-26T09:34:59.683Z,5688.00
2019-02-26T09:35:59.726Z,5748.00
2019-02-26T09:36:58.358Z,5800.00
2019-02-26T09:38:00.810Z,5872.00
2019-02-26T09:38:58.514Z,5924.00
2019-02-26T09:39:59.334Z,5932.00
2019-02-26T09:40:58.051Z,5980.00
2019-02-26T09:41:59.392Z,5992.00
2019-02-26T09:43:00.136Z,6160.00
2019-02-26T09:43:59.338Z,6232.00
2019-02-26T09:45:00.076Z,6040.00
2019-02-26T09:45:59.423Z,6156.00
2019-02-26T09:47:00.044Z,6160.00
2019-02-26T09:47:58.321Z,6224.00
2019-02-26T09:49:00.938Z,6276.00
2019-02-26T09:49:58.447Z,6316.00
2019-02-26T09:50:57.917Z,6336.00
2019-02-26T09:51:59.048Z,6396.00
2019-02-26T09:52:59.110Z,6368.00
2019-02-26T09:53:58.971Z,6352.00
2019-02-26T09:54:58.229Z,6396.00
2019-02-26T09:55:59.354Z,6412.00
2019-02-26T09:56:57.938Z,6444.00
2019-02-26T09:57:57.807Z,6472.00
2019-02-26T09:58:57.787Z,6496.00
2019-02-26T10:00:00.070Z,6460.00
2019-02-26T10:00:57.806Z,6512.00
2019-02-26T10:01:58.945Z,6524.00
2019-02-26T10:02:58.380Z,6572.00
2019-02-26T10:03:58.495Z,6560.00
2019-02-26T10:04:57.796Z,6600.00
2019-02-26T10:05:57.968Z,6540.00
2019-02-26T10:06:57.684Z,6600.00
2019-02-26T10:08:00.454Z,6636.00
2019-02-26T10:08:57.889Z,6640.00
2019-02-26T10:10:00.429Z,6668.00
2019-02-26T10:10:59.688Z,6692.00
2019-02-26T10:11:57.658Z,6684.00
2019-02-26T10:12:59.934Z,6732.00
2019-02-26T10:13:57.615Z,6724.00
2019-02-26T10:14:59.631Z,6772.00
2019-02-26T10:15:59.245Z,6756.00
2019-02-26T10:16:58.145Z,6792.00
2019-02-26T10:18:00.900Z,6832.00
2019-02-26T10:18:57.558Z,6792.00
2019-02-26T10:19:59.365Z,6768.00
2019-02-26T10:20:57.573Z,6840.00
2019-02-26T10:22:00.048Z,6832.00
2019-02-26T10:23:00.436Z,6816.00
2019-02-26T10:23:59.435Z,6812.00
2019-02-26T10:24:57.484Z,6856.00
2019-02-26T10:25:59.743Z,6920.00
2019-02-26T10:27:00.813Z,6648.00
2019-02-26T10:28:03.081Z,6952.00
2019-02-26T10:29:04.139Z,6800.00
2019-02-26T10:29:58.429Z,6716.00
2019-02-26T10:30:59.628Z,6928.00
2019-02-26T10:31:58.484Z,6916.00
2019-02-26T10:33:01.854Z,6936.00
2019-02-26T10:33:58.436Z,6892.00
2019-02-26T10:34:57.488Z,6948.00
2019-02-26T10:35:57.378Z,6976.00
2019-02-26T10:36:57.362Z,6960.00
2019-02-26T10:37:59.710Z,6956.00
2019-02-26T10:39:00.243Z,6972.00
2019-02-26T10:39:57.339Z,6988.00
2019-02-26T10:40:59.193Z,7004.00
2019-02-26T10:42:01.962Z,6992.00
2019-02-26T10:42:57.335Z,7008.00
2019-02-26T10:43:59.043Z,7032.00
2019-02-26T10:44:57.739Z,7056.00
2019-02-26T10:45:57.531Z,6996.00
2019-02-26T10:46:58.323Z,7032.00
2019-02-26T10:47:59.389Z,7036.00
2019-02-26T10:48:57.232Z,7056.00
2019-02-26T10:49:57.269Z,7084.00
2019-02-26T10:50:57.206Z,7052.00
2019-02-26T10:51:58.518Z,7080.00
2019-02-26T10:53:01.743Z,7156.00
2019-02-26T10:53:59.959Z,7168.00
2019-02-26T10:54:57.186Z,7188.00
2019-02-26T10:55:57.332Z,7172.00
2019-02-26T10:56:59.607Z,7220.00
2019-02-26T10:57:58.617Z,7192.00
2019-02-26T10:59:02.937Z,7252.00
2019-02-26T10:59:59.631Z,7208.00
2019-02-26T11:00:59.396Z,7232.00
2019-02-26T11:01:58.416Z,7236.00
2019-02-26T11:02:57.079Z,7212.00
2019-02-26T11:03:58.166Z,7248.00
2019-02-26T11:04:57.077Z,7276.00
2019-02-26T11:05:57.052Z,7316.00
2019-02-26T11:06:59.095Z,7328.00
2019-02-26T11:08:01.896Z,7228.00
2019-02-26T11:08:59.332Z,7288.00
2019-02-26T11:09:58.926Z,7212.00
2019-02-26T11:10:59.998Z,7120.00
2019-02-26T11:11:58.366Z,7332.00
2019-02-26T11:12:59.540Z,7384.00
2019-02-26T11:13:57.251Z,7372.00
2019-02-26T11:14:58.583Z,7440.00
2019-02-26T11:15:59.858Z,7428.00
2019-02-26T11:16:58.143Z,7356.00
2019-02-26T11:17:57.598Z,7512.00
2019-02-26T11:18:58.815Z,7572.00
2019-02-26T11:19:58.526Z,7552.00
2019-02-26T11:20:59.301Z,7800.00
2019-02-26T11:22:00.856Z,7900.00
2019-02-26T11:22:57.862Z,8164.00
2019-02-26T11:23:58.459Z,8372.00
2019-02-26T11:24:58.497Z,8620.00
2019-02-26T11:25:57.422Z,9016.00
2019-02-26T11:26:56.992Z,11868.00
2019-02-26T11:27:56.905Z,41504.00
2019-02-26T11:28:57.401Z,77728.00
2019-02-26T11:29:57.789Z,98848.00
2019-02-26T11:30:56.916Z,99872.00
2019-02-26T11:31:56.826Z,103040.00
2019-02-26T11:33:02.075Z,99296.00
2019-02-26T11:34:01.012Z,101024.00
2019-02-26T11:35:01.813Z,103328.00
2019-02-26T11:35:57.199Z,106528.00
2019-02-26T11:36:58.479Z,106624.00
2019-02-26T11:37:57.944Z,107008.00
2019-02-26T11:38:56.737Z,109184.00
2019-02-26T11:39:57.800Z,111328.00
2019-02-26T11:40:56.671Z,110880.00
2019-02-26T11:41:58.634Z,109280.00
2019-02-26T11:42:56.668Z,106816.00
2019-02-26T11:43:56.804Z,105408.00
2019-02-26T11:44:56.623Z,105472.00
2019-02-26T11:45:58.864Z,107584.00
2019-02-26T11:46:56.767Z,108832.00
2019-02-26T11:47:58.065Z,107968.00
2019-02-26T11:48:57.440Z,107808.00
2019-02-26T11:50:02.760Z,107648.00
2019-02-26T11:51:00.787Z,107968.00
2019-02-26T11:51:57.119Z,108352.00
2019-02-26T11:52:57.045Z,105664.00
2019-02-26T11:53:56.529Z,105472.00
2019-02-26T11:54:58.731Z,103680.00
2019-02-26T11:55:57.380Z,98496.00
2019-02-26T11:56:57.120Z,98272.00
2019-02-26T11:57:56.797Z,97664.00
2019-02-26T11:58:56.769Z,100800.00
2019-02-26T11:59:58.930Z,104736.00
2019-02-26T12:00:57.349Z,106688.00
2019-02-26T12:01:58.948Z,106816.00
2019-02-26T12:02:57.401Z,104448.00
2019-02-26T12:04:03.291Z,105888.00
2019-02-26T12:04:59.885Z,104128.00
2019-02-26T12:05:58.484Z,103104.00
2019-02-26T12:06:58.519Z,104000.00
2019-02-26T12:07:58.701Z,103648.00
2019-02-26T12:08:56.987Z,106624.00
2019-02-26T12:09:57.875Z,104960.00
2019-02-26T12:11:01.135Z,102976.00
2019-02-26T12:11:58.590Z,102496.00
2019-02-26T12:12:59.378Z,103296.00
2019-02-26T12:13:57.269Z,103648.00
2019-02-26T12:14:56.921Z,102016.00
2019-02-26T12:15:56.778Z,101088.00
2019-02-26T12:16:56.365Z,100384.00
2019-02-26T12:17:56.859Z,99296.00
2019-02-26T12:18:58.778Z,97408.00
2019-02-26T12:19:57.968Z,91328.00
2019-02-26T12:20:56.487Z,90112.00
2019-02-26T12:21:57.460Z,89472.00
2019-02-26T12:22:56.768Z,90176.00
2019-02-26T12:23:58.004Z,92672.00
2019-02-26T12:24:58.874Z,90112.00